Airfield :
LOGIN :

Register | Disclaimer

   EN    FR    IT 

 










Legend :    VFR   Marginal VFR   IFR   Intensive IFR   Very Intensive IFR
Visi :
Ceiling :
>= 8 km
>= 3000ft
5 to 8 km
1000 to 3000 ft
1500m to 5 km
500 to 1000 ft
800 to 1500m
200 to 500 ft
< 800m
< 200 ft
Symbols :   Thunderstorms  Fog  Heavy snow  Heavy precipitations  Wind > 20 kt
SIGMETs :     Misc.  Thunderstorms  Icing  Turbulence  Mountain Waves  Volcanic Ashes







- Airport Elevation : 26 ft
- IATA code : SYY
- Download approach charts


EGPO - Stornoway

CURRENT METAR :
  • 210950Z 35016KT 9999 FEW022 SCT048 10/06 Q0997

EXPIRED METARs :
  • 210920Z 01012KT 9999 VCSH FEW022 SCT048 10/06 Q0996
  • 210850Z 36012KT 9999 VCSH FEW010 09/07 Q0996
  • 210820Z 36012KT 9999 -RA FEW008 SCT022 BKN042 09/07 Q0995
  • 210750Z 36012KT 9999 -RA FEW008 SCT018 BKN045 09/07 Q0995
  • 210720Z 36006KT 9999 -RA FEW008 SCT018 BKN034 08/07 Q0994

TAF TAF EGPO
Valid from the 21 at 09:00 until the 21 at 18:00 UTC


210800Z 2109/2118 01010KT 9999 SCT025
PROB40
TEMPO 2109/2118 33015G25KT 6000 SHRA
BECMG 2111/2114 29012KT
ATIS : +44 1851 707 444
No reported NOTAMs for that airfield.
1 SIGMET reported for the Scottish FIR (EGPX) :
 
Severe turbulence
EGPX SIGMET 03 VALID 210900/211200 EGRR
EGPX SCOTTISH FIR SEV TURB FCST SE OF LINE N5500 W00330 - N6100 W00018 SFC/FL060 MOV E 15KT NC=



MET'MAP, your aeronautical weather chart ! - Copyright ORBIFLY December 2007 - Disclaimer

ORBIFLY MET'MAP TEAM :

Programming & Development : Alexandra Zaïnal
Concept & Development : Baudouin d'Aumeries
Co-Development & Prog : Marc-Olivier Méhu
Technical & hardware support : Manuel Goepfert

Contact : metmap@orbifly.com




SOURCES & CREDITS :

   NOAA